Time;durP1;ratioP1;P1;durP2;ratioP2;P2;SDS_P1;SDS_P2;PMS_P1;PMS_P2;Temp;Humidity;BMP_temperature;BMP_pressure;BME280_temperature;BME280_humidity;BME280_pressure;Samples;Min_cycle;Max_cycle;Signal;HPM_P1;HPM_P2
2022/12/02 00:00:49;;;;;;;29.40;15.10;;;-1.30;99.90;;;;;;5053367;28;20056;-79
2022/12/02 00:03:19;;;;;;;26.33;14.48;;;-1.30;99.90;;;;;;5055192;28;20032;-79
2022/12/02 00:05:49;;;;;;;32.10;14.77;;;-1.30;99.90;;;;;;5055288;28;20044;-79
2022/12/02 00:08:20;;;;;;;26.88;14.30;;;-1.20;99.90;;;;;;5053909;28;20029;-78
2022/12/02 00:10:46;;;;;;;29.13;13.32;;;-1.20;99.90;;;;;;5055107;28;20043;-79
2022/12/02 00:13:19;;;;;;;29.83;12.93;;;-1.30;99.90;;;;;;5053757;28;20386;-79
2022/12/02 00:15:48;;;;;;;30.67;14.18;;;-1.20;99.90;;;;;;5055327;28;20025;-79
2022/12/02 00:18:15;;;;;;;29.17;14.98;;;-1.30;99.90;;;;;;5054978;28;20064;-79
2022/12/02 00:20:42;;;;;;;28.33;14.07;;;-1.20;99.90;;;;;;5054937;28;20017;-79
2022/12/02 00:23:07;;;;;;;24.35;12.50;;;-1.20;99.90;;;;;;5053551;28;20023;-79
2022/12/02 00:25:34;;;;;;;30.30;13.73;;;-1.30;99.90;;;;;;5054883;28;20390;-79
2022/12/02 00:28:00;;;;;;;28.60;14.50;;;-1.30;99.90;;;;;;5053400;28;20029;-79
2022/12/02 00:30:26;;;;;;;31.55;13.85;;;-1.30;99.90;;;;;;5053313;28;20040;-79
2022/12/02 00:32:52;;;;;;;29.58;12.10;;;-1.20;99.90;;;;;;5053308;28;20025;-78
2022/12/02 00:35:17;;;;;;;27.63;13.48;;;-1.30;99.90;;;;;;5053447;28;20382;-78
2022/12/02 00:37:43;;;;;;;28.17;13.15;;;-1.30;99.90;;;;;;5054522;28;20501;-78
2022/12/02 00:40:10;;;;;;;29.08;13.90;;;-1.40;99.90;;;;;;5054403;28;20499;-78
2022/12/02 00:42:35;;;;;;;23.00;12.25;;;-1.40;99.90;;;;;;5054400;28;20025;-78
2022/12/02 00:47:45;;;;;;;24.83;12.80;;;-1.40;99.90;;;;;;5054784;28;20032;-78
2022/12/02 00:50:11;;;;;;;28.33;13.88;;;-1.40;99.90;;;;;;5054234;28;20033;-78
2022/12/02 00:52:37;;;;;;;25.45;13.70;;;-1.40;99.90;;;;;;5053027;28;20025;-79
2022/12/02 00:55:03;;;;;;;28.60;14.18;;;-1.40;99.90;;;;;;5054130;28;20075;-79
2022/12/02 00:57:28;;;;;;;28.42;14.27;;;-1.50;99.90;;;;;;5052950;28;20475;-78
2022/12/02 00:59:54;;;;;;;29.40;14.02;;;-1.50;99.90;;;;;;5052694;28;20104;-78
2022/12/02 01:02:20;;;;;;;28.73;13.73;;;-1.60;99.90;;;;;;5054036;28;20025;-79
2022/12/02 01:04:45;;;;;;;24.88;13.75;;;-1.50;99.90;;;;;;5053917;28;20378;-78
2022/12/02 01:07:11;;;;;;;25.52;13.55;;;-1.60;99.90;;;;;;5052691;28;20059;-78
2022/12/02 01:09:36;;;;;;;28.98;12.55;;;-1.60;99.90;;;;;;5053775;28;20558;-78
2022/12/02 01:12:02;;;;;;;26.17;13.55;;;-1.60;99.90;;;;;;5052578;28;20033;-78
2022/12/02 01:14:28;;;;;;;24.38;13.05;;;-1.70;99.90;;;;;;5052492;28;20394;-78
2022/12/02 01:16:54;;;;;;;26.05;13.50;;;-1.70;99.90;;;;;;5054029;28;20024;-78
2022/12/02 01:19:19;;;;;;;29.70;14.80;;;-1.70;99.90;;;;;;5053871;28;20033;-78
2022/12/02 01:21:45;;;;;;;29.20;14.45;;;-1.70;99.90;;;;;;5053864;28;20021;-78
2022/12/02 01:24:10;;;;;;;24.38;12.15;;;-1.70;99.90;;;;;;5052252;28;20467;-79
2022/12/02 01:26:36;;;;;;;28.55;13.65;;;-1.70;99.90;;;;;;5053733;28;20025;-78
2022/12/02 01:29:02;;;;;;;23.77;13.73;;;-1.80;99.90;;;;;;5052154;28;20028;-78
2022/12/02 01:31:28;;;;;;;25.73;12.20;;;-1.80;99.90;;;;;;5052109;28;20040;-79
2022/12/02 01:33:53;;;;;;;28.00;15.02;;;-1.80;99.90;;;;;;5053396;28;20398;-78
2022/12/02 01:36:19;;;;;;;27.77;12.80;;;-1.80;99.90;;;;;;5053702;28;20051;-79
2022/12/02 01:38:45;;;;;;;24.85;13.25;;;-1.80;99.90;;;;;;5052330;28;20492;-78
2022/12/02 01:41:11;;;;;;;27.02;13.80;;;-1.80;99.90;;;;;;5052123;28;20359;-79
2022/12/02 01:43:36;;;;;;;31.17;15.30;;;-1.80;99.90;;;;;;5053268;28;20024;-79
2022/12/02 01:46:02;;;;;;;24.98;12.75;;;-1.80;99.90;;;;;;5053302;28;20471;-79
2022/12/02 01:48:29;;;;;;;30.25;13.73;;;-1.80;99.90;;;;;;5051711;28;20029;-79
2022/12/02 01:50:55;;;;;;;29.73;14.20;;;-1.80;99.90;;;;;;5052856;28;20473;-79
2022/12/02 01:53:21;;;;;;;29.05;14.85;;;-1.80;99.90;;;;;;5052096;28;20055;-79
2022/12/02 01:55:46;;;;;;;24.42;13.10;;;-1.90;99.90;;;;;;5053211;28;20068;-79
2022/12/02 01:58:13;;;;;;;26.88;13.65;;;-1.90;99.90;;;;;;5052110;28;20025;-78
2022/12/02 02:00:39;;;;;;;30.30;16.42;;;-1.90;99.90;;;;;;5053150;28;20075;-78
2022/12/02 02:03:05;;;;;;;28.73;14.15;;;-2.00;99.90;;;;;;5051870;28;20025;-78
2022/12/02 02:05:32;;;;;;;26.85;14.63;;;-1.90;99.90;;;;;;5052959;28;20029;-78
2022/12/02 02:08:04;;;;;;;31.65;14.18;;;-2.00;99.90;;;;;;5053177;28;20516;-78
2022/12/02 02:10:30;;;;;;;28.92;15.20;;;-1.90;99.90;;;;;;5051788;28;20028;-78
2022/12/02 02:12:57;;;;;;;24.08;13.77;;;-1.90;99.90;;;;;;5053129;28;20021;-78
2022/12/02 02:15:23;;;;;;;28.55;14.43;;;-2.00;99.90;;;;;;5051712;28;20050;-78
2022/12/02 02:17:48;;;;;;;24.70;12.50;;;-2.00;99.90;;;;;;5051828;28;20026;-79
2022/12/02 02:20:18;;;;;;;24.67;13.70;;;-2.10;99.90;;;;;;5051676;28;20056;-78
2022/12/02 02:23:05;;;;;;;27.45;13.73;;;-2.10;99.90;;;;;;5054714;28;20024;-79
2022/12/02 02:25:46;;;;;;;30.23;14.00;;;-2.10;99.90;;;;;;5055661;28;20038;-78
2022/12/02 02:28:12;;;;;;;26.02;13.88;;;-2.10;99.90;;;;;;5055873;28;20112;-78
2022/12/02 02:30:38;;;;;;;32.67;14.65;;;-2.10;99.90;;;;;;5055528;28;20140;-78
2022/12/02 02:33:07;;;;;;;34.47;14.85;;;-2.10;99.90;;;;;;5055701;28;20388;-78
2022/12/02 02:35:35;;;;;;;29.98;14.30;;;-2.00;99.90;;;;;;5056746;28;20021;-78
2022/12/02 02:38:03;;;;;;;24.17;13.43;;;-2.10;99.90;;;;;;5056709;28;20024;-78
2022/12/02 02:40:29;;;;;;;32.00;16.13;;;-2.10;99.90;;;;;;5055452;28;20039;-78
2022/12/02 02:43:00;;;;;;;29.27;14.35;;;-2.10;99.90;;;;;;5055641;28;20025;-78
2022/12/02 02:45:28;;;;;;;28.73;14.50;;;-2.10;99.90;;;;;;5055398;28;20434;-78
2022/12/02 02:47:54;;;;;;;29.77;14.48;;;-2.10;99.90;;;;;;5055470;28;20025;-78
2022/12/02 02:50:22;;;;;;;24.45;12.38;;;-2.10;99.90;;;;;;5056446;28;20132;-78
2022/12/02 02:52:48;;;;;;;26.02;15.15;;;-2.10;99.90;;;;;;5056644;28;20010;-78
2022/12/02 02:55:18;;;;;;;26.30;14.45;;;-2.10;99.90;;;;;;5056670;28;20025;-78
2022/12/02 02:57:43;;;;;;;26.13;14.70;;;-2.10;99.90;;;;;;5056185;28;20037;-78
2022/12/02 03:00:10;;;;;;;27.17;12.38;;;-2.10;99.90;;;;;;5056419;28;20036;-79
2022/12/02 03:02:36;;;;;;;25.27;12.20;;;-2.20;99.90;;;;;;5054922;28;20478;-78
2022/12/02 03:05:02;;;;;;;24.00;12.82;;;-2.20;99.90;;;;;;5055198;28;20067;-78
2022/12/02 03:07:28;;;;;;;26.30;13.02;;;-2.20;99.90;;;;;;5054988;28;20513;-78
2022/12/02 03:09:54;;;;;;;28.42;14.73;;;-2.20;99.90;;;;;;5054899;28;20033;-78
2022/12/02 03:12:21;;;;;;;25.45;13.05;;;-2.20;99.90;;;;;;5055035;28;20039;-79
2022/12/02 03:14:47;;;;;;;27.08;12.13;;;-2.20;99.90;;;;;;5054873;28;20525;-78
2022/12/02 03:17:13;;;;;;;24.90;12.35;;;-2.20;99.90;;;;;;5056131;28;20032;-78
2022/12/02 03:19:39;;;;;;;23.73;11.80;;;-2.20;99.90;;;;;;5056151;28;20020;-78
2022/12/02 03:22:05;;;;;;;28.58;12.98;;;-2.20;99.90;;;;;;5054728;28;20028;-79
2022/12/02 03:24:32;;;;;;;24.92;13.68;;;-2.20;99.90;;;;;;5055777;28;20029;-78
2022/12/02 03:26:59;;;;;;;23.45;11.90;;;-2.20;99.90;;;;;;5054606;28;20474;-78
2022/12/02 03:29:26;;;;;;;32.15;12.77;;;-2.30;99.90;;;;;;5054396;28;20475;-78
2022/12/02 03:31:52;;;;;;;29.17;13.57;;;-2.20;99.90;;;;;;5055839;28;20029;-78
2022/12/02 03:34:18;;;;;;;25.92;12.38;;;-2.20;99.90;;;;;;5053214;28;20063;-78
2022/12/02 03:36:43;;;;;;;24.67;11.85;;;-2.20;99.90;;;;;;5054433;28;20518;-78
2022/12/02 03:39:09;;;;;;;26.15;13.52;;;-2.20;99.90;;;;;;5054485;28;20497;-78
2022/12/02 03:41:36;;;;;;;23.00;12.82;;;-2.20;99.90;;;;;;5054247;28;20043;-78
2022/12/02 03:44:02;;;;;;;25.00;13.30;;;-2.20;99.90;;;;;;5054231;28;20088;-78
2022/12/02 03:46:28;;;;;;;26.33;13.63;;;-2.20;99.90;;;;;;5054247;28;20027;-78
2022/12/02 03:48:55;;;;;;;26.35;13.48;;;-2.10;99.90;;;;;;5055719;28;20075;-78
2022/12/02 03:51:21;;;;;;;24.08;13.13;;;-2.20;99.90;;;;;;5055518;28;20033;-78
2022/12/02 03:53:46;;;;;;;22.15;12.15;;;-2.20;99.90;;;;;;5054124;28;20462;-78
2022/12/02 03:56:12;;;;;;;26.08;13.40;;;-2.20;99.90;;;;;;5054228;28;20032;-78
2022/12/02 03:58:48;;;;;;;24.95;12.38;;;-2.10;99.90;;;;;;5053990;28;20070;-78
2022/12/02 04:01:14;;;;;;;26.75;12.45;;;-2.10;99.90;;;;;;5073957;28;20036;-78
2022/12/02 04:03:40;;;;;;;24.85;12.50;;;-2.10;99.90;;;;;;5073911;28;20024;-79
2022/12/02 04:06:05;;;;;;;22.35;11.52;;;-2.10;99.90;;;;;;5074030;28;20382;-78
2022/12/02 04:08:31;;;;;;;23.95;11.68;;;-2.10;99.90;;;;;;5073726;28;20035;-79
2022/12/02 04:10:57;;;;;;;21.80;11.15;;;-2.20;99.90;;;;;;5075170;28;20032;-77
2022/12/02 04:13:23;;;;;;;21.75;11.07;;;-2.20;99.90;;;;;;5074913;28;20028;-78
2022/12/02 04:15:48;;;;;;;19.23;11.18;;;-2.20;99.90;;;;;;5075108;28;20032;-78
2022/12/02 04:18:14;;;;;;;21.58;11.70;;;-2.20;99.90;;;;;;5073750;28;20034;-77
2022/12/02 04:20:40;;;;;;;24.05;11.57;;;-2.20;99.90;;;;;;5075004;28;20043;-78
2022/12/02 04:23:05;;;;;;;17.83;11.07;;;-2.30;99.90;;;;;;5073600;28;20017;-78
2022/12/02 04:25:31;;;;;;;21.30;11.05;;;-2.30;99.90;;;;;;5073573;28;20059;-78
2022/12/02 04:27:57;;;;;;;24.70;10.32;;;-2.30;99.90;;;;;;5073390;28;20031;-78
2022/12/02 04:30:22;;;;;;;21.10;11.05;;;-2.30;99.90;;;;;;5074621;28;20058;-78
2022/12/02 04:32:48;;;;;;;25.02;12.90;;;-2.30;99.90;;;;;;5074769;28;20025;-78
2022/12/02 04:35:14;;;;;;;22.33;11.30;;;-2.30;99.90;;;;;;5073229;28;20025;-78
2022/12/02 04:37:39;;;;;;;19.65;11.18;;;-2.30;99.90;;;;;;5073263;28;20028;-78
2022/12/02 04:40:06;;;;;;;20.90;12.27;;;-2.30;99.90;;;;;;5074594;28;20031;-78
2022/12/02 04:42:32;;;;;;;20.08;10.95;;;-2.30;99.90;;;;;;5060890;28;20523;-78
2022/12/02 04:44:57;;;;;;;25.67;14.40;;;-2.30;99.90;;;;;;5052720;28;20053;-78
2022/12/02 04:47:23;;;;;;;24.27;13.23;;;-2.30;99.90;;;;;;5053117;28;20391;-78
2022/12/02 04:49:48;;;;;;;22.42;12.13;;;-2.30;99.90;;;;;;5054409;28;20110;-78
2022/12/02 04:52:14;;;;;;;21.17;11.50;;;-2.30;99.90;;;;;;5053077;28;20032;-78
2022/12/02 04:54:40;;;;;;;25.70;11.85;;;-2.30;99.90;;;;;;5054135;28;20029;-78
2022/12/02 04:57:06;;;;;;;20.30;10.15;;;-2.30;99.90;;;;;;5054286;28;20029;-78
2022/12/02 04:59:32;;;;;;;16.83;8.05;;;-2.30;99.90;;;;;;5058976;28;20381;-78
2022/12/02 05:01:57;;;;;;;18.60;11.63;;;-2.40;99.90;;;;;;5072848;28;20027;-78
2022/12/02 05:04:23;;;;;;;23.70;11.15;;;-2.40;99.90;;;;;;5072598;28;20017;-78
2022/12/02 05:06:48;;;;;;;23.08;11.52;;;-2.40;99.90;;;;;;5074140;28;20020;-78
2022/12/02 05:09:14;;;;;;;21.95;11.00;;;-2.40;99.90;;;;;;5073904;28;20027;-78
2022/12/02 05:11:39;;;;;;;19.70;10.77;;;-2.40;99.90;;;;;;5073855;28;20040;-78
2022/12/02 05:14:05;;;;;;;23.80;12.38;;;-2.50;99.90;;;;;;5073801;28;20055;-78
2022/12/02 05:16:31;;;;;;;22.10;11.77;;;-2.50;99.90;;;;;;5072456;28;20024;-80
2022/12/02 05:18:56;;;;;;;26.92;11.30;;;-2.40;99.90;;;;;;5072581;28;20394;-81
2022/12/02 05:21:22;;;;;;;21.02;11.05;;;-2.40;99.90;;;;;;5073786;28;20157;-80
2022/12/02 05:23:47;;;;;;;23.92;11.55;;;-2.40;99.90;;;;;;5072535;28;20021;-80
2022/12/02 05:26:13;;;;;;;27.02;13.07;;;-2.40;99.90;;;;;;5072384;28;20039;-81
2022/12/02 05:28:38;;;;;;;24.90;13.68;;;-2.40;99.90;;;;;;5073548;28;20462;-81
2022/12/02 05:31:04;;;;;;;28.60;12.75;;;-2.40;99.90;;;;;;5073461;28;20114;-81
2022/12/02 05:33:30;;;;;;;26.63;13.57;;;-2.40;99.90;;;;;;5068335;28;20493;-81
2022/12/02 05:35:55;;;;;;;23.73;13.13;;;-2.40;99.90;;;;;;5053573;28;20039;-81
2022/12/02 05:38:21;;;;;;;24.35;13.27;;;-2.30;99.90;;;;;;5053464;28;20014;-81
2022/12/02 05:40:46;;;;;;;25.48;13.63;;;-2.30;99.90;;;;;;5052191;28;20028;-80
2022/12/02 05:43:21;;;;;;;28.98;13.85;;;-2.30;99.90;;;;;;5045508;28;20018;-81
2022/12/02 05:45:46;;;;;;;28.15;13.52;;;-2.30;99.90;;;;;;5032157;28;20666;-80
2022/12/02 05:48:15;;;;;;;29.90;14.65;;;-2.30;99.90;;;;;;5033220;28;20514;-81
2022/12/02 05:50:43;;;;;;;34.42;15.35;;;-2.30;99.90;;;;;;5038337;28;20919;-78
2022/12/02 05:53:22;;;;;;;37.05;15.55;;;-2.20;99.90;;;;;;5052963;28;20017;-79
2022/12/02 05:55:50;;;;;;;24.13;12.80;;;-2.20;99.90;;;;;;5053051;28;20059;-79
2022/12/02 05:58:16;;;;;;;26.65;15.32;;;-2.30;99.90;;;;;;5052192;28;20083;-79
2022/12/02 06:00:42;;;;;;;26.10;11.73;;;-2.30;99.90;;;;;;5035786;28;20021;-79
2022/12/02 06:03:17;;;;;;;24.05;11.43;;;-2.30;99.90;;;;;;5033174;28;20494;-78
2022/12/02 06:05:43;;;;;;;20.90;11.68;;;-2.40;99.90;;;;;;5031153;28;20478;-79
2022/12/02 06:08:25;;;;;;;24.77;11.93;;;-2.40;99.90;;;;;;5031807;28;20112;-80
2022/12/02 06:10:59;;;;;;;25.77;11.10;;;-2.40;99.90;;;;;;5031698;28;20091;-78
2022/12/02 06:13:27;;;;;;;20.20;9.48;;;-2.40;99.90;;;;;;5031686;28;20403;-79
2022/12/02 06:15:54;;;;;;;16.52;10.13;;;-2.40;99.90;;;;;;5037043;28;20021;-79
2022/12/02 06:18:26;;;;;;;18.13;8.98;;;-2.50;99.90;;;;;;5031599;28;20076;-79
2022/12/02 06:20:57;;;;;;;16.25;8.82;;;-2.50;99.90;;;;;;5031965;28;20048;-80
2022/12/02 06:23:25;;;;;;;18.45;8.73;;;-2.50;99.90;;;;;;5031607;28;20489;-78
2022/12/02 06:25:53;;;;;;;20.80;10.55;;;-2.50;99.90;;;;;;5031565;28;20030;-78
2022/12/02 06:28:27;;;;;;;20.92;11.18;;;-2.50;99.90;;;;;;5031619;28;20018;-79
2022/12/02 06:31:00;;;;;;;18.75;10.88;;;-2.50;99.90;;;;;;5032700;28;20056;-79
2022/12/02 06:33:32;;;;;;;;;;;-2.50;99.90;;;;;;5033246;28;20037;-80
2022/12/02 06:36:02;;;;;;;16.98;9.23;;;-2.40;99.90;;;;;;5030900;28;20337;-78
2022/12/02 06:38:35;;;;;;;18.75;9.68;;;-2.50;99.90;;;;;;5032591;28;20048;-79
2022/12/02 06:41:24;;;;;;;21.70;11.48;;;-2.50;99.90;;;;;;5039671;28;20017;-79
2022/12/02 06:46:38;;;;;;;17.13;10.45;;;-2.50;99.90;;;;;;5052095;28;20040;-80
2022/12/02 06:49:32;;;;;;;23.08;12.15;;;-2.50;99.90;;;;;;5051382;28;20025;-80
2022/12/02 06:52:00;;;;;;;25.70;10.90;;;-2.50;99.90;;;;;;5051770;28;20067;-79
2022/12/02 06:54:29;;;;;;;21.88;11.43;;;-2.50;99.90;;;;;;5051437;28;20055;-79
2022/12/02 06:56:57;;;;;;;20.67;11.68;;;-2.50;99.90;;;;;;5052580;28;20029;-79
2022/12/02 06:59:23;;;;;;;24.15;12.43;;;-2.50;99.90;;;;;;5048735;28;20021;-79
2022/12/02 07:02:01;;;;;;;28.40;14.30;;;-2.50;99.90;;;;;;5036824;28;20030;-80
2022/12/02 07:04:50;;;;;;;24.50;13.05;;;-2.50;99.90;;;;;;5032237;28;20032;-80
2022/12/02 07:07:20;;;;;;;27.27;11.93;;;-2.40;99.90;;;;;;5041256;28;20025;-80
2022/12/02 07:10:02;;;;;;;31.73;13.65;;;-2.50;99.90;;;;;;5055500;28;20075;-80
2022/12/02 07:12:46;;;;;;;28.15;13.73;;;-2.50;99.90;;;;;;5056296;28;20021;-80
2022/12/02 07:15:32;;;;;;;25.38;13.45;;;-2.50;99.90;;;;;;5054839;28;20059;-80
2022/12/02 07:18:08;;;;;;;23.42;12.35;;;-2.50;99.90;;;;;;5056289;28;20028;-79
2022/12/02 07:20:36;;;;;;;27.27;13.48;;;-2.50;99.90;;;;;;5055957;28;20021;-80
2022/12/02 07:23:13;;;;;;;25.77;13.27;;;-2.50;99.90;;;;;;5054747;28;20029;-79
2022/12/02 07:25:49;;;;;;;25.77;12.68;;;-2.50;99.90;;;;;;5055829;28;20047;-79
2022/12/02 07:28:32;;;;;;;29.38;12.98;;;-2.50;99.90;;;;;;5054684;28;20115;-80
2022/12/02 07:31:11;;;;;;;26.17;13.48;;;-2.50;99.90;;;;;;5054534;28;20037;-79
2022/12/02 07:33:37;;;;;;;29.88;13.85;;;-2.50;99.90;;;;;;5054483;28;20028;-79
2022/12/02 07:36:02;;;;;;;29.52;14.38;;;-2.50;99.90;;;;;;5055588;28;20103;-80
2022/12/02 07:38:28;;;;;;;25.48;13.35;;;-2.50;99.90;;;;;;5054456;28;20059;-79
2022/12/02 07:40:54;;;;;;;30.23;14.40;;;-2.60;99.90;;;;;;5054842;28;20017;-79
2022/12/02 07:43:19;;;;;;;33.13;13.10;;;-2.60;99.90;;;;;;5067599;28;20043;-80
2022/12/02 07:45:45;;;;;;;31.85;14.38;;;-2.60;99.90;;;;;;5044660;28;20060;-80
2022/12/02 07:48:11;;;;;;;32.00;13.63;;;-2.50;99.90;;;;;;5040218;28;20035;-79
2022/12/02 07:50:37;;;;;;;30.08;14.13;;;-2.50;99.90;;;;;;5053989;28;20082;-80
2022/12/02 07:53:02;;;;;;;25.27;11.82;;;-2.60;99.90;;;;;;5055247;28;20013;-80
2022/12/02 07:55:28;;;;;;;38.85;15.38;;;-2.60;99.90;;;;;;5053549;28;20471;-80
2022/12/02 07:57:54;;;;;;;25.00;14.07;;;-2.60;99.90;;;;;;5053972;28;20063;-79
2022/12/02 08:00:20;;;;;;;33.67;15.55;;;-2.60;99.90;;;;;;5052259;28;20086;-80
2022/12/02 08:02:46;;;;;;;30.17;12.93;;;-2.60;99.90;;;;;;5052359;28;20704;-80
2022/12/02 08:05:11;;;;;;;30.88;14.50;;;-2.60;99.90;;;;;;5053167;28;20025;-80
2022/12/02 08:07:38;;;;;;;32.15;14.63;;;-2.60;99.90;;;;;;5052127;28;20032;-79
2022/12/02 08:10:04;;;;;;;28.02;13.77;;;-2.60;99.90;;;;;;5053482;28;20037;-79
2022/12/02 08:12:30;;;;;;;30.05;15.27;;;-2.60;99.90;;;;;;5050731;28;20032;-80
2022/12/02 08:14:56;;;;;;;31.63;14.48;;;-2.60;99.90;;;;;;5052538;28;20021;-80
2022/12/02 08:17:21;;;;;;;33.60;15.32;;;-2.70;99.90;;;;;;5051677;28;20032;-80
2022/12/02 08:19:47;;;;;;;28.48;14.05;;;-2.70;99.90;;;;;;5050131;28;20079;-80
2022/12/02 08:22:12;;;;;;;33.70;15.10;;;-2.70;99.90;;;;;;5050383;28;20025;-80
2022/12/02 08:24:38;;;;;;;33.60;15.13;;;-2.80;99.90;;;;;;5048881;28;20090;-78
2022/12/02 08:27:04;;;;;;;28.45;13.10;;;-2.70;99.90;;;;;;5050552;28;20032;-78
2022/12/02 08:29:30;;;;;;;30.83;13.43;;;-2.70;99.90;;;;;;5051509;28;20017;-79
2022/12/02 08:31:55;;;;;;;27.00;13.57;;;-2.70;99.90;;;;;;5049765;28;20021;-80
2022/12/02 08:34:21;;;;;;;30.95;13.70;;;-2.70;99.90;;;;;;5051188;28;20021;-80
2022/12/02 08:36:46;;;;;;;26.60;13.30;;;-2.70;99.90;;;;;;5052827;28;20021;-80
2022/12/02 08:39:12;;;;;;;36.25;16.38;;;-2.70;99.90;;;;;;5054201;28;20029;-79
2022/12/02 08:41:38;;;;;;;43.22;17.00;;;-2.70;99.90;;;;;;5053310;28;20382;-79
2022/12/02 08:44:05;;;;;;;30.45;15.63;;;-2.80;99.90;;;;;;5053192;28;20490;-79
2022/12/02 08:46:32;;;;;;;30.25;15.73;;;-2.80;99.90;;;;;;5054455;28;20061;-79
2022/12/02 08:48:58;;;;;;;29.50;15.02;;;-2.80;99.90;;;;;;5053269;28;20021;-79
2022/12/02 08:51:25;;;;;;;33.92;15.07;;;-2.80;99.90;;;;;;5053104;28;20040;-80
2022/12/02 08:53:50;;;;;;;29.70;15.27;;;-2.80;99.90;;;;;;5054173;28;20401;-79
2022/12/02 08:56:16;;;;;;;39.00;16.35;;;-2.80;99.90;;;;;;5052414;28;20033;-79
2022/12/02 08:58:41;;;;;;;32.38;15.88;;;-2.80;99.90;;;;;;5051181;28;20032;-79
2022/12/02 09:01:07;;;;;;;35.97;17.10;;;-2.90;99.90;;;;;;5051303;28;20033;-79
2022/12/02 09:03:33;;;;;;;38.85;15.13;;;-2.80;99.90;;;;;;5051644;28;20493;-79
2022/12/02 09:05:59;;;;;;;40.72;17.38;;;-2.80;99.90;;;;;;5053507;28;20032;-80
2022/12/02 09:08:24;;;;;;;41.72;18.23;;;-2.80;99.90;;;;;;5052103;28;20013;-79
2022/12/02 09:10:50;;;;;;;37.15;18.42;;;-2.80;99.90;;;;;;5052509;28;20083;-79
2022/12/02 09:13:16;;;;;;;41.85;17.05;;;-2.80;99.90;;;;;;5052583;28;20017;-79
2022/12/02 09:15:41;;;;;;;42.55;19.95;;;-2.80;99.90;;;;;;5052648;28;20021;-79
2022/12/02 09:18:07;;;;;;;37.65;18.73;;;-2.80;99.90;;;;;;5052732;28;20021;-79
2022/12/02 09:20:33;;;;;;;35.70;17.70;;;-2.80;99.90;;;;;;5052644;28;20475;-79
2022/12/02 09:23:00;;;;;;;39.20;17.08;;;-2.80;99.90;;;;;;5052588;28;20028;-80
2022/12/02 09:25:26;;;;;;;36.97;17.02;;;-2.80;99.90;;;;;;5052584;28;20044;-79
2022/12/02 09:27:53;;;;;;;31.23;14.63;;;-2.70;99.90;;;;;;5052440;28;20032;-79
2022/12/02 09:30:18;;;;;;;28.38;13.65;;;-2.70;99.90;;;;;;5053808;28;20068;-79
2022/12/02 09:32:44;;;;;;;33.13;15.70;;;-2.80;99.90;;;;;;5052270;28;20102;-79
2022/12/02 09:35:09;;;;;;;36.55;15.48;;;-2.80;99.90;;;;;;5052441;28;20487;-79
2022/12/02 09:37:35;;;;;;;30.92;15.10;;;-2.80;99.90;;;;;;5053535;28;20021;-79
2022/12/02 09:40:01;;;;;;;22.85;13.05;;;-2.70;99.90;;;;;;5052346;28;20097;-79
2022/12/02 09:42:27;;;;;;;23.88;11.82;;;-2.70;99.90;;;;;;5052105;28;20049;-79
2022/12/02 09:44:53;;;;;;;19.90;10.50;;;-2.70;99.90;;;;;;5052188;28;20049;-79
2022/12/02 09:47:19;;;;;;;24.25;12.23;;;-2.70;99.90;;;;;;5052163;28;20021;-80
2022/12/02 09:49:46;;;;;;;23.58;14.85;;;-2.60;99.90;;;;;;5051984;28;20021;-79
2022/12/02 09:52:16;;;;;;;26.20;11.63;;;-2.60;99.90;;;;;;5053271;28;20036;-79
2022/12/02 09:54:45;;;;;;;30.23;13.95;;;-2.50;99.90;;;;;;5053407;28;20087;-80
2022/12/02 09:57:14;;;;;;;22.65;11.48;;;-2.50;99.90;;;;;;5052047;28;20382;-79
2022/12/02 09:59:40;;;;;;;24.92;13.02;;;-2.50;99.90;;;;;;5051887;28;20017;-80
2022/12/02 10:02:36;;;;;;;24.52;13.10;;;-2.50;99.90;;;;;;5053138;28;20108;-80
2022/12/02 10:05:16;;;;;;;29.15;12.18;;;-2.50;99.90;;;;;;5052016;28;20394;-80
2022/12/02 10:07:43;;;;;;;19.35;11.27;;;-2.40;99.90;;;;;;5053170;28;20025;-79
2022/12/02 10:10:11;;;;;;;28.30;12.02;;;-2.50;99.90;;;;;;5051930;28;20120;-79
2022/12/02 10:12:37;;;;;;;20.40;11.88;;;-2.40;99.90;;;;;;5053081;28;20387;-79
2022/12/02 10:15:04;;;;;;;29.30;14.50;;;-2.40;99.90;;;;;;5051878;28;20033;-79
2022/12/02 10:17:30;;;;;;;26.20;13.18;;;-2.40;99.90;;;;;;5051684;28;20116;-79
2022/12/02 10:19:56;;;;;;;21.70;11.82;;;-2.40;99.90;;;;;;5053254;28;20047;-79
2022/12/02 10:22:22;;;;;;;18.90;11.32;;;-2.40;99.90;;;;;;5052977;28;20021;-79
2022/12/02 10:24:48;;;;;;;17.15;9.32;;;-2.30;99.90;;;;;;5053088;28;20100;-79
2022/12/02 10:27:43;;;;;;;21.65;11.27;;;-2.40;99.90;;;;;;5053052;28;20040;-79
2022/12/02 10:30:18;;;;;;;21.80;11.20;;;-2.40;99.90;;;;;;5048279;28;20129;-79
2022/12/02 10:33:01;;;;;;;17.70;9.68;;;-2.40;99.90;;;;;;5052795;28;20509;-79
2022/12/02 10:35:28;;;;;;;25.27;11.80;;;-2.40;99.90;;;;;;5052814;28;20033;-80
2022/12/02 10:37:54;;;;;;;20.13;11.52;;;-2.40;99.90;;;;;;5051465;28;20028;-79
2022/12/02 10:40:23;;;;;;;19.02;10.95;;;-2.40;99.90;;;;;;5051678;28;20021;-79
2022/12/02 10:43:09;;;;;;;23.25;10.70;;;-2.40;99.90;;;;;;5053083;28;20028;-79
2022/12/02 10:45:35;;;;;;;16.60;9.45;;;-2.50;99.90;;;;;;5055631;28;20045;-80
2022/12/02 10:48:16;;;;;;;23.05;11.40;;;-2.40;99.90;;;;;;5055570;28;20104;-79
2022/12/02 10:50:43;;;;;;;23.30;10.60;;;-2.40;99.90;;;;;;5055294;28;20040;-79
2022/12/02 10:53:16;;;;;;;20.80;10.82;;;-2.40;99.90;;;;;;5056844;28;20108;-79
2022/12/02 10:55:44;;;;;;;23.23;11.27;;;-2.40;99.90;;;;;;5055370;28;20032;-79
2022/12/02 10:58:14;;;;;;;19.15;10.68;;;-2.40;99.90;;;;;;5056591;28;20025;-80
2022/12/02 11:00:40;;;;;;;26.73;12.13;;;-2.40;99.90;;;;;;5055243;28;20479;-80
2022/12/02 11:03:05;;;;;;;22.05;11.73;;;-2.30;99.90;;;;;;5055244;28;20017;-79
2022/12/02 11:05:34;;;;;;;26.33;13.00;;;-2.40;99.90;;;;;;5056435;28;20482;-79
2022/12/02 11:08:15;;;;;;;25.70;11.65;;;-2.30;99.90;;;;;;5055089;28;20040;-80
2022/12/02 11:10:42;;;;;;;22.98;11.52;;;-2.30;99.90;;;;;;5056122;28;20440;-80
2022/12/02 11:13:11;;;;;;;20.23;11.02;;;-2.30;99.90;;;;;;5055175;28;20024;-80
2022/12/02 11:15:44;;;;;;;22.92;12.63;;;-2.40;99.90;;;;;;5056208;28;20027;-80
2022/12/02 11:18:11;;;;;;;;;;;-2.40;99.90;;;;;;5055357;28;20036;-80
2022/12/02 11:20:46;;;;;;;28.70;13.85;;;-2.30;99.90;;;;;;5054971;28;19904;-79
2022/12/02 11:23:24;;;;;;;19.58;10.85;;;-2.40;99.90;;;;;;5054158;28;20115;-79
2022/12/02 11:25:52;;;;;;;27.65;12.95;;;-2.40;99.90;;;;;;5051320;28;20102;-80
2022/12/02 11:28:27;;;;;;;26.60;12.98;;;-2.50;99.90;;;;;;5045894;28;20387;-80
2022/12/02 11:31:11;;;;;;;24.40;12.07;;;-2.40;99.90;;;;;;5068013;28;20044;-80
2022/12/02 11:33:42;;;;;;;30.60;13.50;;;-2.40;99.90;;;;;;5057471;28;20035;-79
2022/12/02 11:36:08;;;;;;;24.60;11.32;;;-2.40;99.90;;;;;;5048552;28;20403;-80
2022/12/02 11:38:52;;;;;;;28.05;11.20;;;-2.40;99.90;;;;;;5043917;28;20022;-81
2022/12/02 11:41:26;;;;;;;21.13;11.27;;;-2.40;99.90;;;;;;5044867;28;20859;-81
2022/12/02 11:43:54;;;;;;;17.88;10.50;;;-2.40;99.90;;;;;;5067296;28;20409;-81
2022/12/02 11:46:37;;;;;;;25.65;12.35;;;-2.30;99.90;;;;;;5060894;28;20041;-81
2022/12/02 11:49:17;;;;;;;20.75;12.00;;;-2.30;99.90;;;;;;5041146;28;20356;-81
2022/12/02 11:51:42;;;;;;;20.30;10.07;;;-2.20;99.90;;;;;;5052179;28;20049;-80
2022/12/02 11:54:14;;;;;;;23.40;10.60;;;-2.20;99.90;;;;;;5055532;28;20074;-80
2022/12/02 11:56:41;;;;;;;18.08;10.00;;;-2.30;99.90;;;;;;5047845;28;20071;-80
2022/12/02 11:59:40;;;;;;;19.25;9.52;;;-2.40;99.90;;;;;;5050925;28;20482;-81
2022/12/02 12:02:17;;;;;;;23.80;10.27;;;-2.40;99.90;;;;;;5044541;28;20072;-81
2022/12/02 12:04:42;;;;;;;19.45;10.55;;;-2.40;99.90;;;;;;5058682;28;20370;-81
2022/12/02 12:07:08;;;;;;;23.80;11.18;;;-2.30;99.90;;;;;;5055027;28;20036;-81
2022/12/02 12:09:34;;;;;;;20.23;10.55;;;-2.30;99.90;;;;;;5059073;28;20028;-81
2022/12/02 12:12:12;;;;;;;23.10;12.38;;;-2.30;99.90;;;;;;5053270;28;20224;-81
2022/12/02 12:15:04;;;;;;;21.45;11.68;;;-2.30;99.90;;;;;;5044972;28;20063;-81
2022/12/02 12:17:39;;;;;;;27.45;12.05;;;-2.30;99.90;;;;;;5056985;28;20397;-80
2022/12/02 12:20:25;;;;;;;24.25;11.95;;;-2.30;99.90;;;;;;5062728;28;20042;-80
2022/12/02 12:22:51;;;;;;;22.10;12.50;;;-2.30;99.90;;;;;;5048504;28;20029;-79
2022/12/02 12:25:43;;;;;;;27.80;13.38;;;-2.30;99.90;;;;;;5058692;28;20520;-81
2022/12/02 12:28:29;;;;;;;27.27;12.07;;;-2.30;99.90;;;;;;5057612;28;20028;-81
2022/12/02 12:30:54;;;;;;;25.38;12.30;;;-2.30;99.90;;;;;;5033241;28;20044;-81
2022/12/02 12:33:20;;;;;;;23.85;10.32;;;-2.40;99.90;;;;;;5060543;28;20021;-81
2022/12/02 12:35:46;;;;;;;22.60;10.73;;;-2.40;99.90;;;;;;5069073;28;20028;-82
2022/12/02 12:38:12;;;;;;;21.02;10.10;;;-2.40;99.90;;;;;;5064671;28;20546;-81
2022/12/02 12:40:38;;;;;;;19.52;10.90;;;-2.40;99.90;;;;;;5050620;28;20109;-80